sensor_id;sensor_type;location;lat;lon;timestamp;P1;durP1;ratioP1;P2;durP2;ratioP2
48014;SDS011;33780;51.034;7.120;2024-02-15T00:01:51;3.05;;;1.33;;
48014;SDS011;33780;51.034;7.120;2024-02-15T00:04:16;2.33;;;1.40;;
48014;SDS011;33780;51.034;7.120;2024-02-15T00:06:42;2.72;;;1.38;;
48014;SDS011;33780;51.034;7.120;2024-02-15T00:09:08;3.38;;;1.50;;
48014;SDS011;33780;51.034;7.120;2024-02-15T00:11:33;3.97;;;1.65;;
48014;SDS011;33780;51.034;7.120;2024-02-15T00:13:58;3.00;;;1.48;;
48014;SDS011;33780;51.034;7.120;2024-02-15T00:16:25;2.80;;;1.83;;
48014;SDS011;33780;51.034;7.120;2024-02-15T00:18:52;2.85;;;1.70;;
48014;SDS011;33780;51.034;7.120;2024-02-15T00:21:20;3.03;;;1.65;;
48014;SDS011;33780;51.034;7.120;2024-02-15T00:23:46;2.80;;;1.75;;
48014;SDS011;33780;51.034;7.120;2024-02-15T00:26:11;2.75;;;1.92;;
48014;SDS011;33780;51.034;7.120;2024-02-15T00:28:37;2.55;;;1.75;;
48014;SDS011;33780;51.034;7.120;2024-02-15T00:31:02;3.38;;;1.80;;
48014;SDS011;33780;51.034;7.120;2024-02-15T00:33:28;3.75;;;1.95;;
48014;SDS011;33780;51.034;7.120;2024-02-15T00:35:54;2.85;;;1.90;;
48014;SDS011;33780;51.034;7.120;2024-02-15T00:38:19;3.28;;;2.00;;
48014;SDS011;33780;51.034;7.120;2024-02-15T00:40:44;2.97;;;1.98;;
48014;SDS011;33780;51.034;7.120;2024-02-15T00:43:10;3.10;;;1.95;;
48014;SDS011;33780;51.034;7.120;2024-02-15T00:45:36;5.43;;;2.35;;
48014;SDS011;33780;51.034;7.120;2024-02-15T00:48:01;3.05;;;1.75;;
48014;SDS011;33780;51.034;7.120;2024-02-15T00:50:26;2.70;;;1.88;;
48014;SDS011;33780;51.034;7.120;2024-02-15T00:52:52;3.03;;;2.10;;
48014;SDS011;33780;51.034;7.120;2024-02-15T00:55:17;8.73;;;2.47;;
48014;SDS011;33780;51.034;7.120;2024-02-15T00:57:44;3.30;;;1.92;;
48014;SDS011;33780;51.034;7.120;2024-02-15T01:00:09;2.70;;;2.08;;
48014;SDS011;33780;51.034;7.120;2024-02-15T01:02:35;6.35;;;2.30;;
48014;SDS011;33780;51.034;7.120;2024-02-15T01:05:01;5.85;;;2.42;;
48014;SDS011;33780;51.034;7.120;2024-02-15T01:07:26;4.38;;;2.40;;
48014;SDS011;33780;51.034;7.120;2024-02-15T01:09:52;3.70;;;2.33;;
48014;SDS011;33780;51.034;7.120;2024-02-15T01:12:18;4.25;;;2.20;;
48014;SDS011;33780;51.034;7.120;2024-02-15T01:14:44;3.92;;;2.30;;
48014;SDS011;33780;51.034;7.120;2024-02-15T01:17:09;4.97;;;2.40;;
48014;SDS011;33780;51.034;7.120;2024-02-15T01:19:34;3.42;;;2.40;;
48014;SDS011;33780;51.034;7.120;2024-02-15T01:22:00;4.90;;;2.35;;
48014;SDS011;33780;51.034;7.120;2024-02-15T01:24:25;4.07;;;2.60;;
48014;SDS011;33780;51.034;7.120;2024-02-15T01:26:50;4.68;;;2.50;;
48014;SDS011;33780;51.034;7.120;2024-02-15T01:29:21;2.95;;;2.20;;
48014;SDS011;33780;51.034;7.120;2024-02-15T01:31:46;4.30;;;2.40;;
48014;SDS011;33780;51.034;7.120;2024-02-15T01:34:12;4.53;;;2.42;;
48014;SDS011;33780;51.034;7.120;2024-02-15T01:36:37;8.73;;;2.60;;
48014;SDS011;33780;51.034;7.120;2024-02-15T01:39:02;4.60;;;2.22;;
48014;SDS011;33780;51.034;7.120;2024-02-15T01:41:28;3.80;;;2.40;;
48014;SDS011;33780;51.034;7.120;2024-02-15T01:43:53;4.07;;;2.60;;
48014;SDS011;33780;51.034;7.120;2024-02-15T01:46:18;7.63;;;2.42;;
48014;SDS011;33780;51.034;7.120;2024-02-15T01:48:45;4.10;;;2.70;;
48014;SDS011;33780;51.034;7.120;2024-02-15T01:51:11;5.72;;;2.45;;
48014;SDS011;33780;51.034;7.120;2024-02-15T01:53:40;4.80;;;2.53;;
48014;SDS011;33780;51.034;7.120;2024-02-15T01:56:07;3.55;;;2.22;;
48014;SDS011;33780;51.034;7.120;2024-02-15T01:58:32;4.03;;;2.22;;
48014;SDS011;33780;51.034;7.120;2024-02-15T02:00:59;5.10;;;2.42;;
48014;SDS011;33780;51.034;7.120;2024-02-15T02:03:26;3.80;;;2.33;;
48014;SDS011;33780;51.034;7.120;2024-02-15T02:05:52;3.80;;;2.22;;
48014;SDS011;33780;51.034;7.120;2024-02-15T02:08:18;3.42;;;2.38;;
48014;SDS011;33780;51.034;7.120;2024-02-15T02:10:43;3.00;;;2.00;;
48014;SDS011;33780;51.034;7.120;2024-02-15T02:13:10;4.10;;;2.42;;
48014;SDS011;33780;51.034;7.120;2024-02-15T02:15:36;4.45;;;2.30;;
48014;SDS011;33780;51.034;7.120;2024-02-15T02:18:02;3.28;;;2.40;;
48014;SDS011;33780;51.034;7.120;2024-02-15T02:20:33;4.15;;;2.30;;
48014;SDS011;33780;51.034;7.120;2024-02-15T02:23:15;3.05;;;1.92;;
48014;SDS011;33780;51.034;7.120;2024-02-15T02:25:43;3.63;;;2.28;;
48014;SDS011;33780;51.034;7.120;2024-02-15T02:28:09;3.33;;;2.00;;
48014;SDS011;33780;51.034;7.120;2024-02-15T02:30:36;4.22;;;2.22;;
48014;SDS011;33780;51.034;7.120;2024-02-15T02:33:02;3.75;;;2.03;;
48014;SDS011;33780;51.034;7.120;2024-02-15T02:35:29;3.35;;;1.85;;
48014;SDS011;33780;51.034;7.120;2024-02-15T02:37:58;3.10;;;2.00;;
48014;SDS011;33780;51.034;7.120;2024-02-15T02:40:23;5.55;;;2.20;;
48014;SDS011;33780;51.034;7.120;2024-02-15T02:42:49;4.22;;;2.58;;
48014;SDS011;33780;51.034;7.120;2024-02-15T02:45:21;3.92;;;2.33;;
48014;SDS011;33780;51.034;7.120;2024-02-15T02:47:47;3.40;;;2.15;;
48014;SDS011;33780;51.034;7.120;2024-02-15T02:50:16;5.75;;;2.50;;
48014;SDS011;33780;51.034;7.120;2024-02-15T02:52:42;3.65;;;2.30;;
48014;SDS011;33780;51.034;7.120;2024-02-15T02:55:09;4.43;;;2.08;;
48014;SDS011;33780;51.034;7.120;2024-02-15T02:57:38;4.72;;;2.10;;
48014;SDS011;33780;51.034;7.120;2024-02-15T03:00:07;3.78;;;1.90;;
48014;SDS011;33780;51.034;7.120;2024-02-15T03:02:35;4.30;;;1.90;;
48014;SDS011;33780;51.034;7.120;2024-02-15T03:05:04;3.65;;;2.10;;
48014;SDS011;33780;51.034;7.120;2024-02-15T03:07:34;4.45;;;2.00;;
48014;SDS011;33780;51.034;7.120;2024-02-15T03:10:04;3.33;;;2.15;;
48014;SDS011;33780;51.034;7.120;2024-02-15T03:12:33;2.60;;;1.75;;
48014;SDS011;33780;51.034;7.120;2024-02-15T03:15:00;3.50;;;1.98;;
48014;SDS011;33780;51.034;7.120;2024-02-15T03:17:26;3.30;;;2.15;;
48014;SDS011;33780;51.034;7.120;2024-02-15T03:19:52;4.20;;;2.00;;
48014;SDS011;33780;51.034;7.120;2024-02-15T03:22:17;2.58;;;1.90;;
48014;SDS011;33780;51.034;7.120;2024-02-15T03:24:42;3.30;;;2.20;;
48014;SDS011;33780;51.034;7.120;2024-02-15T03:27:08;4.65;;;2.08;;
48014;SDS011;33780;51.034;7.120;2024-02-15T03:29:35;4.22;;;2.20;;
48014;SDS011;33780;51.034;7.120;2024-02-15T03:32:01;4.82;;;2.13;;
48014;SDS011;33780;51.034;7.120;2024-02-15T03:34:28;3.47;;;1.90;;
48014;SDS011;33780;51.034;7.120;2024-02-15T03:36:54;5.78;;;2.40;;
48014;SDS011;33780;51.034;7.120;2024-02-15T03:39:19;2.80;;;1.90;;
48014;SDS011;33780;51.034;7.120;2024-02-15T03:41:45;2.97;;;2.08;;
48014;SDS011;33780;51.034;7.120;2024-02-15T03:44:13;3.38;;;2.15;;
48014;SDS011;33780;51.034;7.120;2024-02-15T03:46:39;4.57;;;2.08;;
48014;SDS011;33780;51.034;7.120;2024-02-15T03:49:05;6.82;;;2.10;;
48014;SDS011;33780;51.034;7.120;2024-02-15T03:51:31;4.25;;;1.98;;
48014;SDS011;33780;51.034;7.120;2024-02-15T03:53:57;5.72;;;2.15;;
48014;SDS011;33780;51.034;7.120;2024-02-15T03:56:23;4.78;;;2.33;;
48014;SDS011;33780;51.034;7.120;2024-02-15T03:58:48;5.53;;;2.38;;
48014;SDS011;33780;51.034;7.120;2024-02-15T04:01:16;3.58;;;2.20;;
48014;SDS011;33780;51.034;7.120;2024-02-15T04:03:42;2.75;;;1.95;;
48014;SDS011;33780;51.034;7.120;2024-02-15T04:06:07;4.30;;;2.20;;
48014;SDS011;33780;51.034;7.120;2024-02-15T04:08:34;3.20;;;2.20;;
48014;SDS011;33780;51.034;7.120;2024-02-15T04:11:00;3.47;;;2.22;;
48014;SDS011;33780;51.034;7.120;2024-02-15T04:13:25;4.47;;;2.00;;
48014;SDS011;33780;51.034;7.120;2024-02-15T04:15:51;4.55;;;2.40;;
48014;SDS011;33780;51.034;7.120;2024-02-15T04:18:18;4.85;;;2.40;;
48014;SDS011;33780;51.034;7.120;2024-02-15T04:20:44;2.72;;;1.90;;
48014;SDS011;33780;51.034;7.120;2024-02-15T04:23:10;4.60;;;2.50;;
48014;SDS011;33780;51.034;7.120;2024-02-15T04:25:36;3.70;;;2.13;;
48014;SDS011;33780;51.034;7.120;2024-02-15T04:28:01;4.07;;;2.25;;
48014;SDS011;33780;51.034;7.120;2024-02-15T04:30:28;4.10;;;2.58;;
48014;SDS011;33780;51.034;7.120;2024-02-15T04:32:57;3.80;;;2.60;;
48014;SDS011;33780;51.034;7.120;2024-02-15T04:35:22;4.25;;;2.05;;
48014;SDS011;33780;51.034;7.120;2024-02-15T04:37:49;4.38;;;2.15;;
48014;SDS011;33780;51.034;7.120;2024-02-15T04:40:16;5.22;;;1.90;;
48014;SDS011;33780;51.034;7.120;2024-02-15T04:42:43;5.00;;;2.30;;
48014;SDS011;33780;51.034;7.120;2024-02-15T04:45:10;3.35;;;1.90;;
48014;SDS011;33780;51.034;7.120;2024-02-15T04:47:38;4.47;;;2.00;;
48014;SDS011;33780;51.034;7.120;2024-02-15T04:50:05;2.60;;;1.80;;
48014;SDS011;33780;51.034;7.120;2024-02-15T04:52:31;3.20;;;1.88;;
48014;SDS011;33780;51.034;7.120;2024-02-15T04:54:57;4.15;;;2.22;;
48014;SDS011;33780;51.034;7.120;2024-02-15T04:57:25;3.50;;;1.88;;
48014;SDS011;33780;51.034;7.120;2024-02-15T04:59:53;4.00;;;1.88;;
48014;SDS011;33780;51.034;7.120;2024-02-15T05:02:18;6.18;;;1.88;;
48014;SDS011;33780;51.034;7.120;2024-02-15T05:04:44;3.28;;;1.60;;
48014;SDS011;33780;51.034;7.120;2024-02-15T05:07:10;3.80;;;1.80;;
48014;SDS011;33780;51.034;7.120;2024-02-15T05:09:35;4.82;;;1.70;;
48014;SDS011;33780;51.034;7.120;2024-02-15T05:12:01;3.55;;;1.77;;
48014;SDS011;33780;51.034;7.120;2024-02-15T05:14:30;2.10;;;1.50;;
48014;SDS011;33780;51.034;7.120;2024-02-15T05:16:55;4.55;;;1.70;;
48014;SDS011;33780;51.034;7.120;2024-02-15T05:19:21;4.93;;;1.50;;
48014;SDS011;33780;51.034;7.120;2024-02-15T05:21:46;5.85;;;1.80;;
48014;SDS011;33780;51.034;7.120;2024-02-15T05:24:15;3.53;;;1.80;;
48014;SDS011;33780;51.034;7.120;2024-02-15T05:26:43;3.03;;;1.70;;
48014;SDS011;33780;51.034;7.120;2024-02-15T05:29:11;3.00;;;1.55;;
48014;SDS011;33780;51.034;7.120;2024-02-15T05:31:37;3.22;;;1.38;;
48014;SDS011;33780;51.034;7.120;2024-02-15T05:34:04;5.70;;;1.80;;
48014;SDS011;33780;51.034;7.120;2024-02-15T05:36:32;4.28;;;1.70;;
48014;SDS011;33780;51.034;7.120;2024-02-15T05:38:59;5.05;;;1.98;;
48014;SDS011;33780;51.034;7.120;2024-02-15T05:41:25;4.07;;;1.90;;
48014;SDS011;33780;51.034;7.120;2024-02-15T05:43:50;4.38;;;1.90;;
48014;SDS011;33780;51.034;7.120;2024-02-15T05:46:18;4.15;;;1.60;;
48014;SDS011;33780;51.034;7.120;2024-02-15T05:48:46;4.47;;;1.98;;
48014;SDS011;33780;51.034;7.120;2024-02-15T05:51:12;6.05;;;2.28;;
48014;SDS011;33780;51.034;7.120;2024-02-15T05:53:37;6.93;;;2.13;;
48014;SDS011;33780;51.034;7.120;2024-02-15T05:56:03;4.57;;;2.13;;
48014;SDS011;33780;51.034;7.120;2024-02-15T05:58:32;6.10;;;2.10;;
48014;SDS011;33780;51.034;7.120;2024-02-15T06:00:58;5.57;;;2.40;;
48014;SDS011;33780;51.034;7.120;2024-02-15T06:03:28;5.03;;;2.50;;
48014;SDS011;33780;51.034;7.120;2024-02-15T06:05:54;4.88;;;2.45;;
48014;SDS011;33780;51.034;7.120;2024-02-15T06:08:26;4.85;;;2.30;;
48014;SDS011;33780;51.034;7.120;2024-02-15T06:10:54;5.65;;;2.25;;
48014;SDS011;33780;51.034;7.120;2024-02-15T06:13:20;5.07;;;2.05;;
48014;SDS011;33780;51.034;7.120;2024-02-15T06:15:48;3.55;;;1.77;;
48014;SDS011;33780;51.034;7.120;2024-02-15T06:18:18;5.65;;;2.15;;
48014;SDS011;33780;51.034;7.120;2024-02-15T06:20:46;4.93;;;2.25;;
48014;SDS011;33780;51.034;7.120;2024-02-15T06:23:16;5.53;;;2.47;;
48014;SDS011;33780;51.034;7.120;2024-02-15T06:25:41;5.07;;;2.30;;
48014;SDS011;33780;51.034;7.120;2024-02-15T06:28:07;6.32;;;2.25;;
48014;SDS011;33780;51.034;7.120;2024-02-15T06:30:45;9.55;;;2.30;;
48014;SDS011;33780;51.034;7.120;2024-02-15T06:33:29;3.28;;;1.90;;
48014;SDS011;33780;51.034;7.120;2024-02-15T06:36:13;2.72;;;1.60;;
48014;SDS011;33780;51.034;7.120;2024-02-15T06:38:57;3.45;;;1.92;;
48014;SDS011;33780;51.034;7.120;2024-02-15T06:41:41;6.50;;;2.13;;
48014;SDS011;33780;51.034;7.120;2024-02-15T06:44:06;5.32;;;2.08;;
48014;SDS011;33780;51.034;7.120;2024-02-15T06:46:32;4.40;;;1.80;;
48014;SDS011;33780;51.034;7.120;2024-02-15T06:48:58;5.68;;;2.08;;
48014;SDS011;33780;51.034;7.120;2024-02-15T06:51:23;3.45;;;1.83;;
48014;SDS011;33780;51.034;7.120;2024-02-15T06:53:49;4.72;;;2.22;;
48014;SDS011;33780;51.034;7.120;2024-02-15T06:56:16;6.45;;;2.08;;
48014;SDS011;33780;51.034;7.120;2024-02-15T06:58:43;6.93;;;1.80;;
48014;SDS011;33780;51.034;7.120;2024-02-15T07:01:08;5.05;;;2.10;;
48014;SDS011;33780;51.034;7.120;2024-02-15T07:03:33;5.85;;;1.73;;
48014;SDS011;33780;51.034;7.120;2024-02-15T07:05:59;6.10;;;2.25;;
48014;SDS011;33780;51.034;7.120;2024-02-15T07:08:24;5.70;;;1.90;;
48014;SDS011;33780;51.034;7.120;2024-02-15T07:10:50;3.30;;;1.73;;
48014;SDS011;33780;51.034;7.120;2024-02-15T07:13:16;3.00;;;1.58;;
48014;SDS011;33780;51.034;7.120;2024-02-15T07:15:42;4.10;;;1.60;;
48014;SDS011;33780;51.034;7.120;2024-02-15T07:18:09;6.82;;;1.75;;
48014;SDS011;33780;51.034;7.120;2024-02-15T07:20:35;4.88;;;1.70;;
48014;SDS011;33780;51.034;7.120;2024-02-15T07:23:01;4.35;;;1.70;;
48014;SDS011;33780;51.034;7.120;2024-02-15T07:25:28;3.00;;;1.75;;
48014;SDS011;33780;51.034;7.120;2024-02-15T07:27:54;3.28;;;1.75;;
48014;SDS011;33780;51.034;7.120;2024-02-15T07:30:19;4.25;;;1.48;;
48014;SDS011;33780;51.034;7.120;2024-02-15T07:32:45;4.82;;;1.85;;
48014;SDS011;33780;51.034;7.120;2024-02-15T07:35:10;3.95;;;1.80;;
48014;SDS011;33780;51.034;7.120;2024-02-15T07:37:36;3.72;;;1.60;;
48014;SDS011;33780;51.034;7.120;2024-02-15T07:40:01;5.30;;;1.77;;
48014;SDS011;33780;51.034;7.120;2024-02-15T07:42:32;7.05;;;1.95;;
48014;SDS011;33780;51.034;7.120;2024-02-15T07:44:59;5.80;;;2.00;;
48014;SDS011;33780;51.034;7.120;2024-02-15T07:47:25;5.85;;;1.90;;
48014;SDS011;33780;51.034;7.120;2024-02-15T07:49:51;4.95;;;1.65;;
48014;SDS011;33780;51.034;7.120;2024-02-15T07:52:17;3.72;;;1.80;;
48014;SDS011;33780;51.034;7.120;2024-02-15T07:54:43;4.13;;;1.80;;
48014;SDS011;33780;51.034;7.120;2024-02-15T07:57:08;3.95;;;1.65;;
48014;SDS011;33780;51.034;7.120;2024-02-15T07:59:34;4.43;;;1.80;;
48014;SDS011;33780;51.034;7.120;2024-02-15T08:02:00;5.32;;;1.98;;
48014;SDS011;33780;51.034;7.120;2024-02-15T08:04:26;4.20;;;1.60;;
48014;SDS011;33780;51.034;7.120;2024-02-15T08:06:51;4.93;;;1.52;;
48014;SDS011;33780;51.034;7.120;2024-02-15T08:09:19;5.78;;;1.60;;
48014;SDS011;33780;51.034;7.120;2024-02-15T08:11:47;4.93;;;1.60;;
48014;SDS011;33780;51.034;7.120;2024-02-15T08:14:13;3.00;;;1.30;;
48014;SDS011;33780;51.034;7.120;2024-02-15T08:16:39;4.38;;;1.60;;
48014;SDS011;33780;51.034;7.120;2024-02-15T08:19:05;4.10;;;1.77;;
48014;SDS011;33780;51.034;7.120;2024-02-15T08:21:32;4.50;;;1.67;;
48014;SDS011;33780;51.034;7.120;2024-02-15T08:23:59;6.03;;;1.85;;
48014;SDS011;33780;51.034;7.120;2024-02-15T08:26:37;5.38;;;1.65;;
48014;SDS011;33780;51.034;7.120;2024-02-15T08:29:04;4.07;;;1.40;;
48014;SDS011;33780;51.034;7.120;2024-02-15T08:31:31;2.45;;;1.23;;
48014;SDS011;33780;51.034;7.120;2024-02-15T08:33:56;3.88;;;1.38;;
48014;SDS011;33780;51.034;7.120;2024-02-15T08:36:22;3.58;;;1.42;;
48014;SDS011;33780;51.034;7.120;2024-02-15T08:38:48;6.85;;;1.42;;
48014;SDS011;33780;51.034;7.120;2024-02-15T08:41:15;5.78;;;1.88;;
48014;SDS011;33780;51.034;7.120;2024-02-15T08:43:42;4.55;;;1.45;;
48014;SDS011;33780;51.034;7.120;2024-02-15T08:46:08;2.65;;;1.25;;
48014;SDS011;33780;51.034;7.120;2024-02-15T08:48:35;4.00;;;1.38;;
48014;SDS011;33780;51.034;7.120;2024-02-15T08:51:00;5.22;;;1.40;;
48014;SDS011;33780;51.034;7.120;2024-02-15T08:53:25;3.13;;;1.42;;
48014;SDS011;33780;51.034;7.120;2024-02-15T08:55:51;6.35;;;1.30;;
48014;SDS011;33780;51.034;7.120;2024-02-15T08:58:18;2.30;;;1.17;;
48014;SDS011;33780;51.034;7.120;2024-02-15T09:00:44;3.92;;;1.50;;
48014;SDS011;33780;51.034;7.120;2024-02-15T09:03:10;4.80;;;1.40;;
48014;SDS011;33780;51.034;7.120;2024-02-15T09:05:37;3.53;;;1.27;;
48014;SDS011;33780;51.034;7.120;2024-02-15T09:08:03;5.22;;;1.20;;
48014;SDS011;33780;51.034;7.120;2024-02-15T09:10:29;3.60;;;1.23;;
48014;SDS011;33780;51.034;7.120;2024-02-15T09:12:55;4.43;;;1.40;;
48014;SDS011;33780;51.034;7.120;2024-02-15T09:15:21;3.95;;;1.55;;
48014;SDS011;33780;51.034;7.120;2024-02-15T09:17:47;4.10;;;1.10;;
48014;SDS011;33780;51.034;7.120;2024-02-15T09:20:13;3.28;;;1.30;;
48014;SDS011;33780;51.034;7.120;2024-02-15T09:22:53;2.85;;;1.23;;
48014;SDS011;33780;51.034;7.120;2024-02-15T09:25:19;3.67;;;1.27;;
48014;SDS011;33780;51.034;7.120;2024-02-15T09:27:48;4.00;;;1.20;;
48014;SDS011;33780;51.034;7.120;2024-02-15T09:30:14;5.30;;;1.60;;
48014;SDS011;33780;51.034;7.120;2024-02-15T09:32:40;3.65;;;1.40;;
48014;SDS011;33780;51.034;7.120;2024-02-15T09:35:06;3.67;;;1.80;;
48014;SDS011;33780;51.034;7.120;2024-02-15T09:37:35;3.65;;;1.40;;
48014;SDS011;33780;51.034;7.120;2024-02-15T09:40:03;6.00;;;1.70;;
48014;SDS011;33780;51.034;7.120;2024-02-15T09:42:32;3.22;;;1.25;;
48014;SDS011;33780;51.034;7.120;2024-02-15T09:45:01;4.20;;;1.17;;
48014;SDS011;33780;51.034;7.120;2024-02-15T09:47:30;4.97;;;1.60;;
48014;SDS011;33780;51.034;7.120;2024-02-15T09:50:06;4.22;;;1.42;;
48014;SDS011;33780;51.034;7.120;2024-02-15T09:52:32;2.95;;;1.20;;
48014;SDS011;33780;51.034;7.120;2024-02-15T09:55:02;3.53;;;1.42;;
48014;SDS011;33780;51.034;7.120;2024-02-15T09:57:28;4.90;;;1.42;;
48014;SDS011;33780;51.034;7.120;2024-02-15T09:59:56;4.57;;;1.48;;
48014;SDS011;33780;51.034;7.120;2024-02-15T10:02:22;4.45;;;1.20;;
48014;SDS011;33780;51.034;7.120;2024-02-15T10:04:48;3.30;;;1.20;;
48014;SDS011;33780;51.034;7.120;2024-02-15T10:07:13;2.95;;;1.25;;
48014;SDS011;33780;51.034;7.120;2024-02-15T10:09:38;5.30;;;1.20;;
48014;SDS011;33780;51.034;7.120;2024-02-15T10:12:07;4.68;;;1.08;;
48014;SDS011;33780;51.034;7.120;2024-02-15T10:14:34;2.83;;;1.25;;
48014;SDS011;33780;51.034;7.120;2024-02-15T10:17:06;7.82;;;1.30;;
48014;SDS011;33780;51.034;7.120;2024-02-15T10:19:36;3.25;;;1.10;;
48014;SDS011;33780;51.034;7.120;2024-02-15T10:22:06;3.63;;;1.10;;
48014;SDS011;33780;51.034;7.120;2024-02-15T10:24:32;3.95;;;1.13;;
48014;SDS011;33780;51.034;7.120;2024-02-15T10:27:01;5.15;;;1.20;;
48014;SDS011;33780;51.034;7.120;2024-02-15T10:29:29;4.55;;;1.10;;
48014;SDS011;33780;51.034;7.120;2024-02-15T10:32:05;4.05;;;1.00;;
48014;SDS011;33780;51.034;7.120;2024-02-15T10:34:35;3.15;;;1.10;;
48014;SDS011;33780;51.034;7.120;2024-02-15T10:37:13;2.65;;;1.00;;
48014;SDS011;33780;51.034;7.120;2024-02-15T10:39:41;2.77;;;1.10;;
48014;SDS011;33780;51.034;7.120;2024-02-15T10:42:07;3.55;;;0.93;;
48014;SDS011;33780;51.034;7.120;2024-02-15T10:44:35;3.28;;;1.55;;
48014;SDS011;33780;51.034;7.120;2024-02-15T10:47:03;3.38;;;1.08;;
48014;SDS011;33780;51.034;7.120;2024-02-15T10:49:32;4.07;;;1.45;;
48014;SDS011;33780;51.034;7.120;2024-02-15T10:51:58;3.70;;;1.45;;
48014;SDS011;33780;51.034;7.120;2024-02-15T10:57:19;2.35;;;1.10;;
48014;SDS011;33780;51.034;7.120;2024-02-15T10:59:57;3.92;;;1.30;;
48014;SDS011;33780;51.034;7.120;2024-02-15T11:02:38;3.83;;;1.20;;
48014;SDS011;33780;51.034;7.120;2024-02-15T11:05:08;3.40;;;1.20;;
48014;SDS011;33780;51.034;7.120;2024-02-15T11:07:35;2.75;;;0.98;;
48014;SDS011;33780;51.034;7.120;2024-02-15T11:10:02;2.88;;;0.95;;
48014;SDS011;33780;51.034;7.120;2024-02-15T11:12:33;2.97;;;1.00;;
48014;SDS011;33780;51.034;7.120;2024-02-15T11:14:59;4.03;;;1.35;;
48014;SDS011;33780;51.034;7.120;2024-02-15T11:20:08;3.10;;;1.00;;
48014;SDS011;33780;51.034;7.120;2024-02-15T11:22:56;4.60;;;1.35;;
48014;SDS011;33780;51.034;7.120;2024-02-15T11:25:31;6.07;;;1.20;;
48014;SDS011;33780;51.034;7.120;2024-02-15T11:28:33;3.42;;;1.00;;
48014;SDS011;33780;51.034;7.120;2024-02-15T11:30:53;3.42;;;1.25;;
48014;SDS011;33780;51.034;7.120;2024-02-15T11:33:34;3.08;;;1.10;;
48014;SDS011;33780;51.034;7.120;2024-02-15T11:36:13;3.30;;;1.08;;
48014;SDS011;33780;51.034;7.120;2024-02-15T11:38:39;4.45;;;1.13;;
48014;SDS011;33780;51.034;7.120;2024-02-15T11:41:11;2.95;;;1.10;;
48014;SDS011;33780;51.034;7.120;2024-02-15T11:46:18;3.65;;;1.40;;
48014;SDS011;33780;51.034;7.120;2024-02-15T11:48:44;4.47;;;1.10;;
48014;SDS011;33780;51.034;7.120;2024-02-15T11:54:05;6.25;;;1.17;;
48014;SDS011;33780;51.034;7.120;2024-02-15T11:56:33;2.10;;;1.10;;
48014;SDS011;33780;51.034;7.120;2024-02-15T11:59:16;3.38;;;1.30;;
48014;SDS011;33780;51.034;7.120;2024-02-15T12:01:56;4.63;;;1.20;;
48014;SDS011;33780;51.034;7.120;2024-02-15T12:04:40;2.55;;;0.98;;
48014;SDS011;33780;51.034;7.120;2024-02-15T12:07:24;4.45;;;1.17;;
48014;SDS011;33780;51.034;7.120;2024-02-15T12:10:15;4.65;;;1.20;;
48014;SDS011;33780;51.034;7.120;2024-02-15T12:12:59;2.92;;;0.90;;
48014;SDS011;33780;51.034;7.120;2024-02-15T12:15:55;3.80;;;1.13;;
48014;SDS011;33780;51.034;7.120;2024-02-15T12:18:40;3.22;;;1.02;;
48014;SDS011;33780;51.034;7.120;2024-02-15T12:21:09;5.57;;;1.33;;
48014;SDS011;33780;51.034;7.120;2024-02-15T12:23:38;3.15;;;1.17;;
48014;SDS011;33780;51.034;7.120;2024-02-15T12:26:03;2.97;;;1.13;;
48014;SDS011;33780;51.034;7.120;2024-02-15T12:28:29;2.97;;;1.17;;
48014;SDS011;33780;51.034;7.120;2024-02-15T12:30:55;3.47;;;1.23;;
48014;SDS011;33780;51.034;7.120;2024-02-15T12:33:22;2.40;;;1.02;;
48014;SDS011;33780;51.034;7.120;2024-02-15T12:35:47;3.13;;;1.15;;
48014;SDS011;33780;51.034;7.120;2024-02-15T12:38:15;2.63;;;1.08;;
48014;SDS011;33780;51.034;7.120;2024-02-15T12:40:41;5.13;;;1.10;;
48014;SDS011;33780;51.034;7.120;2024-02-15T12:43:07;2.92;;;1.40;;
48014;SDS011;33780;51.034;7.120;2024-02-15T12:45:40;2.28;;;1.20;;
48014;SDS011;33780;51.034;7.120;2024-02-15T12:48:07;4.57;;;1.38;;
48014;SDS011;33780;51.034;7.120;2024-02-15T12:50:33;3.95;;;1.10;;
48014;SDS011;33780;51.034;7.120;2024-02-15T12:52:59;2.30;;;1.08;;
48014;SDS011;33780;51.034;7.120;2024-02-15T12:55:28;2.63;;;0.98;;
48014;SDS011;33780;51.034;7.120;2024-02-15T12:57:59;3.13;;;1.10;;
48014;SDS011;33780;51.034;7.120;2024-02-15T13:00:28;2.47;;;1.05;;
48014;SDS011;33780;51.034;7.120;2024-02-15T13:02:58;3.70;;;1.30;;
48014;SDS011;33780;51.034;7.120;2024-02-15T13:05:25;3.58;;;1.20;;
48014;SDS011;33780;51.034;7.120;2024-02-15T13:07:52;2.72;;;1.20;;
48014;SDS011;33780;51.034;7.120;2024-02-15T13:10:22;4.95;;;1.23;;
48014;SDS011;33780;51.034;7.120;2024-02-15T13:12:50;3.72;;;1.30;;
48014;SDS011;33780;51.034;7.120;2024-02-15T13:15:17;3.55;;;1.10;;
48014;SDS011;33780;51.034;7.120;2024-02-15T13:17:44;3.17;;;1.27;;
48014;SDS011;33780;51.034;7.120;2024-02-15T13:20:11;4.28;;;1.30;;
48014;SDS011;33780;51.034;7.120;2024-02-15T13:22:38;3.97;;;1.20;;
48014;SDS011;33780;51.034;7.120;2024-02-15T13:25:08;3.25;;;1.17;;
48014;SDS011;33780;51.034;7.120;2024-02-15T13:27:37;4.05;;;1.05;;
48014;SDS011;33780;51.034;7.120;2024-02-15T13:30:03;4.43;;;1.20;;
48014;SDS011;33780;51.034;7.120;2024-02-15T13:32:33;4.53;;;1.10;;
48014;SDS011;33780;51.034;7.120;2024-02-15T13:35:00;3.70;;;1.20;;
48014;SDS011;33780;51.034;7.120;2024-02-15T13:37:32;2.22;;;1.02;;
48014;SDS011;33780;51.034;7.120;2024-02-15T13:39:57;3.92;;;1.30;;
48014;SDS011;33780;51.034;7.120;2024-02-15T13:42:23;3.92;;;1.00;;
48014;SDS011;33780;51.034;7.120;2024-02-15T13:44:48;4.75;;;1.20;;
48014;SDS011;33780;51.034;7.120;2024-02-15T13:47:13;3.13;;;1.15;;
48014;SDS011;33780;51.034;7.120;2024-02-15T13:49:41;4.82;;;1.13;;
48014;SDS011;33780;51.034;7.120;2024-02-15T13:52:06;3.83;;;1.15;;
48014;SDS011;33780;51.034;7.120;2024-02-15T13:54:32;3.03;;;0.90;;
48014;SDS011;33780;51.034;7.120;2024-02-15T13:57:01;4.35;;;1.20;;
48014;SDS011;33780;51.034;7.120;2024-02-15T13:59:27;3.00;;;1.08;;
48014;SDS011;33780;51.034;7.120;2024-02-15T14:01:56;3.00;;;0.90;;
48014;SDS011;33780;51.034;7.120;2024-02-15T14:04:22;4.25;;;1.17;;
48014;SDS011;33780;51.034;7.120;2024-02-15T14:06:47;3.55;;;1.00;;
48014;SDS011;33780;51.034;7.120;2024-02-15T14:09:13;4.78;;;1.10;;
48014;SDS011;33780;51.034;7.120;2024-02-15T14:11:39;3.47;;;1.00;;
48014;SDS011;33780;51.034;7.120;2024-02-15T14:14:07;3.15;;;1.10;;
48014;SDS011;33780;51.034;7.120;2024-02-15T14:16:33;1.92;;;0.82;;
48014;SDS011;33780;51.034;7.120;2024-02-15T14:18:58;3.38;;;1.10;;
48014;SDS011;33780;51.034;7.120;2024-02-15T14:21:24;3.47;;;1.10;;
48014;SDS011;33780;51.034;7.120;2024-02-15T14:23:50;2.97;;;0.90;;
48014;SDS011;33780;51.034;7.120;2024-02-15T14:26:15;2.10;;;1.20;;
48014;SDS011;33780;51.034;7.120;2024-02-15T14:28:42;3.33;;;1.10;;
48014;SDS011;33780;51.034;7.120;2024-02-15T14:31:09;2.47;;;0.88;;
48014;SDS011;33780;51.034;7.120;2024-02-15T14:33:54;3.67;;;1.23;;
48014;SDS011;33780;51.034;7.120;2024-02-15T14:36:19;3.25;;;1.10;;
48014;SDS011;33780;51.034;7.120;2024-02-15T14:38:45;4.53;;;1.10;;
48014;SDS011;33780;51.034;7.120;2024-02-15T14:41:11;2.97;;;0.80;;
48014;SDS011;33780;51.034;7.120;2024-02-15T14:43:37;4.75;;;1.20;;
48014;SDS011;33780;51.034;7.120;2024-02-15T14:46:02;4.35;;;1.20;;
48014;SDS011;33780;51.034;7.120;2024-02-15T14:48:30;3.25;;;1.00;;
48014;SDS011;33780;51.034;7.120;2024-02-15T14:50:56;3.55;;;1.02;;
48014;SDS011;33780;51.034;7.120;2024-02-15T14:53:22;2.20;;;1.08;;
48014;SDS011;33780;51.034;7.120;2024-02-15T14:55:48;3.70;;;1.10;;
48014;SDS011;33780;51.034;7.120;2024-02-15T14:58:15;4.72;;;1.10;;
48014;SDS011;33780;51.034;7.120;2024-02-15T15:00:43;2.60;;;1.20;;
48014;SDS011;33780;51.034;7.120;2024-02-15T15:03:11;3.33;;;1.17;;